| time (UTC) | temp F | wind direction | speed knots | gust knots | rain 1hr in | rain 24hr in | rain mn in | humidity % | barometer mb |
| 20260509031546 | 48 | 262 | 0.0 | 0.0 | 0.00 | 0.00 | 0.00 | 56 | 1004.6 |
| 20260509030045 | 48 | 262 | 0.0 | 0.0 | 0.00 | 0.00 | 0.00 | 53 | 1004.9 |
| 20260509024544 | 50 | 262 | 0.0 | 0.0 | 0.00 | 0.00 | 0.00 | 53 | 1005.1 |
| 20260509023043 | 51 | 262 | 0.0 | 0.0 | 0.00 | 0.00 | 0.00 | 50 | 1005.2 |
| 20260509021544 | 52 | 262 | 0.0 | 0.0 | 0.00 | 0.00 | 0.00 | 50 | 1005.1 |
| 20260509020043 | 53 | 262 | 0.0 | 0.0 | 0.00 | 0.00 | 0.00 | 46 | 1005.1 |
| 20260509014543 | 55 | 262 | 0.0 | 0.0 | 0.00 | 0.00 | 0.00 | 41 | 1005.0 |
| 20260509013042 | 56 | 262 | 0.0 | 0.0 | 0.00 | 0.00 | 0.00 | 36 | 1005.0 |
| 20260509011541 | 57 | 262 | 0.0 | 0.0 | 0.00 | 0.00 | 0.00 | 32 | 1004.9 |
| 20260509010041 | 58 | 262 | 0.0 | 0.0 | 0.00 | 0.00 | 0.00 | 30 | 1004.8 |
| 20260509004541 | 59 | 262 | 0.0 | 4.3 | 0.00 | 0.00 | 0.00 | 29 | 1004.6 |
| 20260509003042 | 59 | 264 | 0.9 | 5.2 | 0.00 | 0.00 | 0.00 | 28 | 1004.5 |
| 20260509001541 | 60 | 269 | 0.9 | 4.3 | 0.00 | 0.00 | 0.00 | 29 | 1004.6 |
| 20260509000039 | 60 | 274 | 0.9 | 5.2 | 0.00 | 0.00 | 0.00 | 27 | 1004.5 |
| 20260508234545 | 61 | 298 | 0.0 | 4.3 | 0.00 | 0.00 | 0.00 | 30 | 1004.5 |
| 20260508233040 | 62 | 273 | 0.9 | 7.0 | 0.00 | 0.00 | 0.00 | 29 | 1004.3 |
| 20260508231550 | 62 | 275 | 0.0 | 5.2 | 0.00 | 0.00 | 0.00 | 27 | 1004.2 |
| 20260508230046 | 63 | 269 | 2.6 | 6.1 | 0.00 | 0.00 | 0.00 | 30 | 1004.2 |
| 20260508224535 | 64 | 246 | 0.0 | 5.2 | 0.00 | 0.00 | 0.00 | 26 | 1004.2 |
| 20260508223041 | 64 | 270 | 3.5 | 9.6 | 0.00 | 0.00 | 0.00 | 27 | 1004.2 |
| 20260508221536 | 64 | 261 | 3.5 | 7.0 | 0.00 | 0.00 | 0.00 | 26 | 1004.3 |
| 20260508220037 | 64 | 307 | 2.6 | 5.2 | 0.00 | 0.00 | 0.00 | 31 | 1004.2 |
| 20260508214530 | 65 | 263 | 1.7 | 6.1 | 0.00 | 0.00 | 0.00 | 32 | 1004.3 |
| 20260508213029 | 64 | 259 | 1.7 | 7.0 | 0.00 | 0.00 | 0.00 | 33 | 1004.4 |
| 20260508211530 | 64 | 242 | 1.7 | 7.8 | 0.00 | 0.00 | 0.00 | 32 | 1004.5 |
| 20260508210028 | 64 | 204 | 4.3 | 7.8 | 0.00 | 0.00 | 0.00 | 31 | 1004.6 |
| 20260508204525 | 64 | 269 | 1.7 | 7.8 | 0.00 | 0.00 | 0.00 | 33 | 1004.7 |
| 20260508203026 | 64 | 252 | 0.0 | 7.8 | 0.00 | 0.00 | 0.00 | 34 | 1005.0 |
| 20260508201521 | 63 | 274 | 2.6 | 7.8 | 0.00 | 0.00 | 0.00 | 33 | 1005.2 |
| 20260508200018 | 63 | 273 | 2.6 | 7.0 | 0.00 | 0.00 | 0.00 | 35 | 1005.6 |
| 20260508194516 | 63 | 286 | 3.5 | 6.1 | 0.00 | 0.00 | 0.00 | 31 | 1005.8 |
| 20260508193016 | 63 | 322 | 0.9 | 6.1 | 0.00 | 0.00 | 0.00 | 35 | 1006.0 |
| 20260508191529 | 63 | 277 | 0.9 | 7.0 | 0.00 | 0.00 | 0.00 | 35 | 1006.2 |
| 20260508190011 | 63 | 338 | 0.0 | 7.0 | 0.00 | 0.00 | 0.00 | 35 | 1006.5 |
| 20260508184510 | 63 | 236 | 0.0 | 6.1 | 0.00 | 0.00 | 0.00 | 38 | 1006.7 |
| 20260508183009 | 63 | 334 | 0.9 | 7.8 | 0.00 | 0.00 | 0.00 | 36 | 1006.8 |
| 20260508181506 | 63 | 161 | 0.9 | 4.3 | 0.00 | 0.00 | 0.00 | 38 | 1007.2 |
| 20260508180005 | 62 | 184 | 0.0 | 5.2 | 0.00 | 0.00 | 0.00 | 35 | 1007.3 |
| 20260508174502 | 62 | 314 | 4.3 | 10.4 | 0.00 | 0.00 | 0.00 | 33 | 1007.6 |
| 20260508173059 | 63 | 261 | 0.9 | 7.0 | 0.00 | 0.00 | 0.00 | 34 | 1007.9 |
| 20260508171557 | 63 | 274 | 0.9 | 3.5 | 0.00 | 0.00 | 0.00 | 34 | 1008.1 |
| 20260508170056 | 62 | 264 | 1.7 | 7.8 | 0.00 | 0.00 | 0.00 | 35 | 1008.3 |
| 20260508164600 | 61 | 281 | 1.7 | 7.0 | 0.00 | 0.00 | 0.00 | 35 | 1008.4 |
| 20260508163050 | 62 | 334 | 0.9 | 8.7 | 0.00 | 0.00 | 0.00 | 36 | 1008.7 |
| 20260508161545 | 61 | 265 | 1.7 | 6.1 | 0.00 | 0.00 | 0.00 | 37 | 1008.8 |
| 20260508160042 | 59 | 204 | 0.0 | 6.1 | 0.00 | 0.00 | 0.00 | 44 | 1008.8 |
| 20260508154538 | 59 | 275 | 1.7 | 7.8 | 0.00 | 0.00 | 0.00 | 45 | 1009.2 |
| 20260508153036 | 57 | 94 | 0.0 | 3.5 | 0.00 | 0.00 | 0.00 | 49 | 1009.2 |
| 20260508151529 | 55 | 295 | 0.0 | 4.3 | 0.00 | 0.00 | 0.00 | 48 | 1009.2 |
| 20260508150029 | 54 | 82 | 0.0 | 4.3 | 0.00 | 0.00 | 0.00 | 48 | 1009.3 |
| 20260508144524 | 54 | 276 | 1.7 | 5.2 | 0.00 | 0.00 | 0.00 | 53 | 1009.5 |
| 20260508143020 | 53 | 209 | 0.0 | 0.0 | 0.00 | 0.00 | 0.00 | 57 | 1009.6 |
| 20260508141518 | 52 | 115 | 0.9 | 4.3 | 0.00 | 0.00 | 0.00 | 55 | 1009.8 |
| 20260508140017 | 52 | 173 | 0.0 | 0.0 | 0.00 | 0.00 | 0.00 | 61 | 1009.8 |
| 20260508134514 | 51 | 169 | 0.0 | 3.5 | 0.00 | 0.00 | 0.00 | 63 | 1010.0 |
| 20260508133010 | 50 | 88 | 0.0 | 0.9 | 0.00 | 0.00 | 0.00 | 66 | 1010.0 |
| 20260508131508 | 49 | 155 | 0.9 | 5.2 | 0.00 | 0.00 | 0.00 | 69 | 1010.1 |
| 20260508130005 | 47 | 283 | 0.0 | 0.0 | 0.00 | 0.00 | 0.00 | 72 | 1010.1 |
| 20260508124502 | 44 | 283 | 0.0 | 0.0 | 0.00 | 0.00 | 0.00 | 83 | 1010.0 |
| 20260508123100 | 41 | 283 | 0.0 | 0.0 | 0.00 | 0.00 | 0.00 | 88 | 1010.0 |
| 20260508121558 | 39 | 283 | 0.0 | 0.0 | 0.00 | 0.00 | 0.00 | 90 | 1009.9 |
| 20260508120057 | 37 | 283 | 0.0 | 0.0 | 0.00 | 0.00 | 0.00 | 91 | 1009.7 |
| 20260508114607 | 36 | 283 | 0.0 | 0.0 | 0.00 | 0.00 | 0.00 | 90 | 1009.7 |
| 20260508113103 | 36 | 283 | 0.0 | 0.0 | 0.00 | 0.00 | 0.00 | 90 | 1009.5 |
| 20260508111604 | 35 | 283 | 0.0 | 0.0 | 0.00 | 0.00 | 0.00 | 90 | 1009.3 |
| 20260508110051 | 35 | 283 | 0.0 | 0.0 | 0.00 | 0.00 | 0.00 | 89 | 1009.3 |
| 20260508104550 | 35 | 283 | 0.0 | 0.0 | 0.00 | 0.00 | 0.00 | 89 | 1009.1 |
| 20260508103047 | 35 | 283 | 0.0 | 0.0 | 0.00 | 0.00 | 0.00 | 88 | 1009.0 |
| 20260508101545 | 36 | 283 | 0.0 | 0.0 | 0.00 | 0.00 | 0.00 | 88 | 1009.1 |
| 20260508100044 | 36 | 283 | 0.0 | 0.0 | 0.00 | 0.00 | 0.00 | 88 | 1009.1 |
| 20260508094545 | 37 | 283 | 0.0 | 0.0 | 0.00 | 0.00 | 0.00 | 87 | 1009.2 |
| 20260508093040 | 37 | 283 | 0.0 | 0.0 | 0.00 | 0.00 | 0.00 | 87 | 1009.2 |
| 20260508091547 | 37 | 283 | 0.0 | 0.0 | 0.00 | 0.00 | 0.00 | 86 | 1009.1 |
| 20260508090036 | 38 | 283 | 0.0 | 0.0 | 0.00 | 0.00 | 0.00 | 85 | 1009.2 |
| 20260508084534 | 38 | 283 | 0.0 | 0.0 | 0.00 | 0.00 | 0.00 | 84 | 1009.2 |
| 20260508083031 | 39 | 283 | 0.0 | 0.0 | 0.00 | 0.00 | 0.00 | 83 | 1009.3 |
| 20260508081539 | 39 | 283 | 0.0 | 0.0 | 0.00 | 0.00 | 0.00 | 81 | 1009.3 |
| 20260508080027 | 40 | 283 | 0.0 | 0.0 | 0.00 | 0.00 | 0.00 | 82 | 1009.4 |
| 20260508074527 | 40 | 283 | 0.0 | 0.0 | 0.00 | 0.00 | 0.00 | 81 | 1009.5 |
| 20260508073027 | 40 | 283 | 0.0 | 0.0 | 0.00 | 0.00 | 0.00 | 80 | 1009.4 |
| 20260508071523 | 41 | 283 | 0.0 | 0.0 | 0.00 | 0.00 | 0.00 | 79 | 1009.5 |
| 20260508070020 | 41 | 283 | 0.0 | 0.0 | 0.00 | 0.00 | 0.00 | 78 | 1009.5 |
| 20260508064525 | 42 | 283 | 0.0 | 0.0 | 0.00 | 0.00 | 0.00 | 77 | 1009.6 |
| 20260508063015 | 42 | 283 | 0.0 | 0.0 | 0.00 | 0.00 | 0.00 | 77 | 1009.8 |
| 20260508061513 | 43 | 283 | 0.0 | 0.0 | 0.00 | 0.00 | 0.00 | 76 | 1009.8 |
| 20260508060011 | 43 | 283 | 0.0 | 0.0 | 0.00 | 0.00 | 0.00 | 76 | 1009.8 |
| 20260508054512 | 44 | 283 | 0.0 | 0.0 | 0.00 | 0.00 | 0.00 | 74 | 1009.9 |
| 20260508053009 | 44 | 283 | 0.0 | 0.0 | 0.00 | 0.00 | 0.00 | 76 | 1009.9 |
| 20260508051516 | 44 | 283 | 0.0 | 0.0 | 0.00 | 0.00 | 0.00 | 74 | 1009.9 |
| 20260508050007 | 44 | 283 | 0.0 | 0.0 | 0.00 | 0.00 | 0.00 | 75 | 1009.8 |
| 20260508044505 | 45 | 283 | 0.0 | 0.0 | 0.00 | 0.00 | 0.00 | 76 | 1009.7 |
| 20260508043007 | 45 | 283 | 0.0 | 0.0 | 0.00 | 0.00 | 0.00 | 75 | 1009.6 |
| 20260508041608 | 46 | 283 | 0.0 | 0.0 | 0.00 | 0.00 | 0.00 | 74 | 1009.5 |
| 20260508040058 | 47 | 283 | 0.0 | 0.0 | 0.00 | 0.00 | 0.00 | 74 | 1009.6 |
| 20260508034559 | 47 | 283 | 0.0 | 0.0 | 0.00 | 0.00 | 0.00 | 73 | 1009.4 |
| 20260508033100 | 47 | 283 | 0.0 | 0.0 | 0.00 | 0.00 | 0.00 | 73 | 1009.6 |